createdAt,value
2018-02-14T00:00:35.213Z,-1.90
2018-02-14T00:01:38.456Z,-1.90
2018-02-14T00:02:41.676Z,-1.80
2018-02-14T00:03:44.919Z,-1.70
2018-02-14T00:04:48.892Z,-1.70
2018-02-14T00:05:52.154Z,-1.60
2018-02-14T00:06:55.368Z,-1.60
2018-02-14T00:07:58.566Z,-1.70
2018-02-14T00:09:01.795Z,-1.70
2018-02-14T00:10:05.036Z,-1.70
2018-02-14T00:11:08.265Z,-1.80
2018-02-14T00:12:11.501Z,-1.80
2018-02-14T00:13:14.772Z,-1.90
2018-02-14T00:14:18.033Z,-1.90
2018-02-14T00:15:21.265Z,-1.90
2018-02-14T00:16:24.573Z,-1.90
2018-02-14T00:17:27.822Z,-1.90
2018-02-14T00:18:31.023Z,-1.90
2018-02-14T00:19:34.336Z,-1.90
2018-02-14T00:20:37.539Z,-1.90
2018-02-14T00:21:40.765Z,-1.90
2018-02-14T00:22:44.036Z,-1.80
2018-02-14T00:23:48.021Z,-1.80
2018-02-14T00:24:52.008Z,-1.80
2018-02-14T00:25:55.232Z,-1.80
2018-02-14T00:26:58.455Z,-1.80
2018-02-14T00:28:01.695Z,-1.90
2018-02-14T00:29:04.938Z,-1.90
2018-02-14T00:30:08.160Z,-1.90
2018-02-14T00:31:11.411Z,-1.90
2018-02-14T00:32:14.638Z,-1.90
2018-02-14T00:33:17.862Z,-1.80
2018-02-14T00:34:21.185Z,-1.80
2018-02-14T00:35:24.420Z,-1.80
2018-02-14T00:36:27.676Z,-1.70
2018-02-14T00:37:30.895Z,-1.70
2018-02-14T00:38:34.131Z,-1.80
2018-02-14T00:39:37.393Z,-1.80
2018-02-14T00:40:40.686Z,-1.80
2018-02-14T00:41:43.923Z,-1.80
2018-02-14T00:42:47.144Z,-1.80
2018-02-14T00:43:50.370Z,-1.80
2018-02-14T00:44:53.596Z,-1.90
2018-02-14T00:45:57.594Z,-1.80
2018-02-14T00:47:01.589Z,-1.80
2018-02-14T00:48:04.817Z,-1.90
2018-02-14T00:49:08.034Z,-1.90
2018-02-14T00:50:11.257Z,-1.80
2018-02-14T00:51:14.486Z,-1.80
2018-02-14T00:52:17.738Z,-1.80
2018-02-14T00:53:20.969Z,-1.90
2018-02-14T00:54:24.284Z,-1.90
2018-02-14T00:55:27.524Z,-1.90
2018-02-14T00:56:31.521Z,-1.90
2018-02-14T00:57:34.748Z,-1.90
2018-02-14T00:58:38.736Z,-1.90
2018-02-14T00:59:42.739Z,-1.90
2018-02-14T01:00:46.730Z,-1.90
2018-02-14T01:01:49.955Z,-2.00
2018-02-14T01:02:53.190Z,-2.00
2018-02-14T01:03:56.502Z,-1.90
2018-02-14T01:05:00.483Z,-1.90
2018-02-14T01:06:04.487Z,-1.90
2018-02-14T01:07:08.471Z,-1.90
2018-02-14T01:08:11.709Z,-1.90
2018-02-14T01:09:14.953Z,-2.00
2018-02-14T01:10:18.944Z,-2.00
2018-02-14T01:11:22.256Z,-2.00
2018-02-14T01:12:25.492Z,-2.10
2018-02-14T01:13:28.739Z,-2.00
2018-02-14T01:14:31.949Z,-2.00
2018-02-14T01:15:35.181Z,-1.90
2018-02-14T01:16:39.173Z,-1.90
2018-02-14T01:17:43.159Z,-1.90
2018-02-14T01:18:48.170Z,-2.00
2018-02-14T01:19:57.203Z,-1.90
2018-02-14T01:21:00.451Z,-1.90
2018-02-14T01:22:03.688Z,-2.00
2018-02-14T01:23:07.684Z,-2.10
2018-02-14T01:24:11.666Z,-2.10
2018-02-14T01:25:14.904Z,-2.10
2018-02-14T01:26:18.144Z,-2.10
2018-02-14T01:27:22.160Z,-2.00
2018-02-14T01:28:26.503Z,-2.00
2018-02-14T01:29:31.375Z,-2.00
2018-02-14T01:30:34.590Z,-2.00
2018-02-14T01:31:37.823Z,-2.00
2018-02-14T01:32:41.045Z,-2.00
2018-02-14T01:33:44.276Z,-2.10
2018-02-14T01:34:47.490Z,-2.20
2018-02-14T01:35:51.477Z,-2.10
2018-02-14T01:36:54.705Z,-2.10
2018-02-14T01:37:57.953Z,-2.10
2018-02-14T01:39:01.952Z,-2.10
2018-02-14T01:40:05.193Z,-2.20
2018-02-14T01:41:08.401Z,-2.10
2018-02-14T01:42:11.641Z,-2.10
2018-02-14T01:43:14.862Z,-2.00
2018-02-14T01:44:18.106Z,-2.00
2018-02-14T01:45:21.340Z,-2.00
2018-02-14T01:46:24.568Z,-2.10
2018-02-14T01:47:27.804Z,-2.10
2018-02-14T01:48:31.810Z,-2.10
2018-02-14T01:49:35.793Z,-2.10
2018-02-14T01:50:39.011Z,-2.10
2018-02-14T01:51:42.247Z,-2.10
2018-02-14T01:52:45.461Z,-2.10
2018-02-14T01:53:48.701Z,-2.10
2018-02-14T01:54:51.923Z,-2.20
2018-02-14T01:55:55.927Z,-2.20
2018-02-14T01:56:59.903Z,-2.20
2018-02-14T01:58:03.903Z,-2.20
2018-02-14T01:59:07.138Z,-2.20
2018-02-14T02:00:10.370Z,-2.10
2018-02-14T02:01:13.597Z,-2.20
2018-02-14T02:02:16.850Z,-2.20
2018-02-14T02:03:20.862Z,-2.20
2018-02-14T02:04:24.096Z,-2.20
2018-02-14T02:05:27.309Z,-2.20
2018-02-14T02:06:31.296Z,-2.20
2018-02-14T02:07:34.506Z,-2.20
2018-02-14T02:08:38.501Z,-2.20
2018-02-14T02:09:42.497Z,-2.20
2018-02-14T02:10:46.499Z,-2.20
2018-02-14T02:11:50.501Z,-2.20
2018-02-14T02:12:54.487Z,-2.30
2018-02-14T02:13:57.753Z,-2.30
2018-02-14T02:15:00.970Z,-2.30
2018-02-14T02:16:04.964Z,-2.40
2018-02-14T02:17:08.966Z,-2.40
2018-02-14T02:18:13.041Z,-2.40
2018-02-14T02:19:16.273Z,-2.50
2018-02-14T02:20:19.516Z,-2.50
2018-02-14T02:21:22.837Z,-2.50
2018-02-14T02:22:26.070Z,-2.60
2018-02-14T02:23:29.311Z,-2.60
2018-02-14T02:24:32.548Z,-2.60
2018-02-14T02:25:35.775Z,-2.50
2018-02-14T02:26:38.993Z,-2.50
2018-02-14T02:27:42.212Z,-2.50
2018-02-14T02:28:46.212Z,-2.60
2018-02-14T02:29:50.202Z,-2.60
2018-02-14T02:30:54.484Z,-2.60
2018-02-14T02:31:57.711Z,-2.60
2018-02-14T02:33:01.749Z,-2.60
2018-02-14T02:34:04.969Z,-2.60
2018-02-14T02:35:08.204Z,-2.60
2018-02-14T02:36:11.410Z,-2.50
2018-02-14T02:37:14.644Z,-2.40
2018-02-14T02:38:17.856Z,-2.50
2018-02-14T02:39:47.656Z,-2.50
2018-02-14T02:40:50.900Z,-2.50
2018-02-14T02:41:54.134Z,-2.60
2018-02-14T02:42:57.390Z,-2.70
2018-02-14T02:44:00.627Z,-2.60
2018-02-14T02:45:03.842Z,-2.50
2018-02-14T02:46:07.819Z,-2.50
2018-02-14T02:47:11.053Z,-2.50
2018-02-14T02:48:14.311Z,-2.50
2018-02-14T02:49:18.293Z,-2.50
2018-02-14T02:50:21.585Z,-2.50
2018-02-14T02:51:24.804Z,-2.50
2018-02-14T02:52:28.042Z,-2.40
2018-02-14T02:53:31.294Z,-2.50
2018-02-14T02:54:34.518Z,-2.40
2018-02-14T02:55:38.512Z,-2.30
2018-02-14T02:56:41.731Z,-2.30
2018-02-14T02:57:45.000Z,-2.30
2018-02-14T02:58:49.053Z,-2.30
2018-02-14T02:59:52.264Z,-2.30
2018-02-14T03:00:56.258Z,-2.30
2018-02-14T03:01:59.484Z,-2.30
2018-02-14T03:03:02.735Z,-2.30
2018-02-14T03:04:06.049Z,-2.30
2018-02-14T03:05:09.272Z,-2.30
2018-02-14T03:06:12.485Z,-2.30
2018-02-14T03:07:16.475Z,-2.30
2018-02-14T03:08:19.698Z,-2.30
2018-02-14T03:09:22.969Z,-2.30
2018-02-14T03:10:26.201Z,-2.30
2018-02-14T03:11:29.420Z,-2.40
2018-02-14T03:12:33.408Z,-2.40
2018-02-14T03:13:37.393Z,-2.30
2018-02-14T03:14:40.615Z,-2.40
2018-02-14T03:15:43.840Z,-2.30
2018-02-14T03:16:47.065Z,-2.40
2018-02-14T03:17:51.065Z,-2.50
2018-02-14T03:18:54.388Z,-2.50
2018-02-14T03:19:57.622Z,-2.50
2018-02-14T03:21:00.848Z,-2.60
2018-02-14T03:22:04.069Z,-2.50
2018-02-14T03:23:07.281Z,-2.50
2018-02-14T03:24:11.304Z,-2.50
2018-02-14T03:25:15.283Z,-2.60
2018-02-14T03:26:19.285Z,-2.60
2018-02-14T03:27:23.321Z,-2.60
2018-02-14T03:28:26.549Z,-2.60
2018-02-14T03:29:29.789Z,-2.60
2018-02-14T03:30:33.053Z,-2.60
2018-02-14T03:31:37.047Z,-2.60
2018-02-14T03:32:41.063Z,-2.60
2018-02-14T03:33:44.286Z,-2.60
2018-02-14T03:34:47.518Z,-2.60
2018-02-14T03:35:51.513Z,-2.60
2018-02-14T03:36:55.518Z,-2.60
2018-02-14T03:37:58.749Z,-2.60
2018-02-14T03:39:02.004Z,-2.60
2018-02-14T03:40:05.241Z,-2.60
2018-02-14T03:41:08.457Z,-2.70
2018-02-14T03:42:11.737Z,-2.70
2018-02-14T03:43:14.981Z,-2.70
2018-02-14T03:44:18.200Z,-2.70
2018-02-14T03:45:21.441Z,-2.70
2018-02-14T03:46:24.672Z,-2.60
2018-02-14T03:47:27.968Z,-2.60
2018-02-14T03:48:31.226Z,-2.60
2018-02-14T03:49:34.447Z,-2.60
2018-02-14T03:50:37.677Z,-2.60
2018-02-14T03:51:41.680Z,-2.60
2018-02-14T03:52:44.928Z,-2.60
2018-02-14T03:53:48.131Z,-2.50
2018-02-14T03:54:51.361Z,-2.50
2018-02-14T03:55:54.660Z,-2.50
2018-02-14T03:56:57.898Z,-2.60
2018-02-14T03:58:01.906Z,-2.60
2018-02-14T03:59:05.881Z,-2.60
2018-02-14T04:00:09.866Z,-2.60
2018-02-14T04:01:13.098Z,-2.60
2018-02-14T04:02:16.319Z,-2.50
2018-02-14T04:03:19.607Z,-2.60
2018-02-14T04:04:22.796Z,-2.60
2018-02-14T04:05:26.052Z,-2.70
2018-02-14T04:06:29.285Z,-2.70
2018-02-14T04:07:33.305Z,-2.80
2018-02-14T04:08:36.530Z,-2.80
2018-02-14T04:09:39.757Z,-2.80
2018-02-14T04:10:43.752Z,-2.80
2018-02-14T04:11:47.354Z,-2.80
2018-02-14T04:12:51.462Z,-2.80
2018-02-14T04:13:54.766Z,-2.80
2018-02-14T04:14:57.992Z,-2.80
2018-02-14T04:16:01.252Z,-2.70
2018-02-14T04:17:04.460Z,-2.70
2018-02-14T04:18:07.679Z,-2.80
2018-02-14T04:19:10.925Z,-2.80
2018-02-14T04:20:14.256Z,-2.80
2018-02-14T04:21:17.480Z,-2.80
2018-02-14T04:22:21.497Z,-2.90
2018-02-14T04:23:24.712Z,-2.90
2018-02-14T04:24:27.956Z,-2.90
2018-02-14T04:25:31.191Z,-2.90
2018-02-14T04:26:34.433Z,-2.90
2018-02-14T04:27:37.656Z,-2.90
2018-02-14T04:28:40.904Z,-2.80
2018-02-14T04:29:44.901Z,-2.80
2018-02-14T04:30:48.126Z,-2.80
2018-02-14T04:31:51.356Z,-2.70
2018-02-14T04:32:54.596Z,-2.70
2018-02-14T04:33:57.817Z,-2.70
2018-02-14T04:35:01.061Z,-2.70
2018-02-14T04:36:04.288Z,-2.80
2018-02-14T04:37:07.539Z,-2.70
2018-02-14T04:38:10.775Z,-2.70
2018-02-14T04:39:14.808Z,-2.80
2018-02-14T04:40:18.046Z,-2.80
2018-02-14T04:41:21.285Z,-2.70
2018-02-14T04:42:24.581Z,-2.80
2018-02-14T04:43:27.784Z,-2.80
2018-02-14T04:44:31.040Z,-2.80
2018-02-14T04:45:34.281Z,-2.80
2018-02-14T04:46:38.276Z,-2.80
2018-02-14T04:47:42.282Z,-2.90
2018-02-14T04:48:46.267Z,-2.90
2018-02-14T04:49:50.291Z,-2.90
2018-02-14T04:50:54.277Z,-2.80
2018-02-14T04:51:58.275Z,-2.80
2018-02-14T04:53:01.514Z,-2.80
2018-02-14T04:54:04.720Z,-2.80
2018-02-14T04:55:07.964Z,-2.80
2018-02-14T04:56:11.194Z,-2.90
2018-02-14T04:57:14.414Z,-2.90
2018-02-14T04:58:17.742Z,-2.90
2018-02-14T04:59:20.935Z,-3.00
2018-02-14T05:00:24.176Z,-2.90
2018-02-14T05:01:27.406Z,-2.90
2018-02-14T05:02:30.625Z,-3.00
2018-02-14T05:03:33.846Z,-3.00
2018-02-14T05:04:37.092Z,-2.90
2018-02-14T05:05:40.321Z,-2.90
2018-02-14T05:06:43.557Z,-2.90
2018-02-14T05:07:46.782Z,-2.90
2018-02-14T05:08:50.008Z,-2.90
2018-02-14T05:09:54.021Z,-3.00
2018-02-14T05:10:58.030Z,-3.00
2018-02-14T05:12:01.264Z,-3.00
2018-02-14T05:13:04.497Z,-3.00
2018-02-14T05:14:07.705Z,-2.90
2018-02-14T05:15:10.934Z,-2.90
2018-02-14T05:16:14.946Z,-3.00
2018-02-14T05:17:18.171Z,-3.00
2018-02-14T05:18:21.418Z,-3.00
2018-02-14T05:19:25.408Z,-2.90
2018-02-14T05:20:29.404Z,-2.90
2018-02-14T05:21:32.627Z,-2.90
2018-02-14T05:22:36.104Z,-2.80
2018-02-14T05:23:39.326Z,-2.80
2018-02-14T05:24:42.624Z,-2.80
2018-02-14T05:25:45.814Z,-2.90
2018-02-14T05:26:49.045Z,-2.90
2018-02-14T05:27:52.270Z,-2.90
2018-02-14T05:28:55.552Z,-3.00
2018-02-14T05:29:58.752Z,-3.10
2018-02-14T05:31:01.972Z,-3.00
2018-02-14T05:32:05.217Z,-3.00
2018-02-14T05:33:08.471Z,-3.10
2018-02-14T05:34:11.722Z,-3.10
2018-02-14T05:35:14.936Z,-3.00
2018-02-14T05:36:18.165Z,-3.00
2018-02-14T05:37:22.168Z,-3.00
2018-02-14T05:38:25.376Z,-3.00
2018-02-14T05:39:28.642Z,-3.00
2018-02-14T05:40:32.019Z,-3.10
2018-02-14T05:41:36.011Z,-3.00
2018-02-14T05:42:40.039Z,-3.00
2018-02-14T05:43:43.276Z,-3.00
2018-02-14T05:44:46.612Z,-3.10
2018-02-14T05:45:49.942Z,-3.10
2018-02-14T05:46:53.131Z,-3.10
2018-02-14T05:47:56.364Z,-3.10
2018-02-14T05:50:09.154Z,-3.10
2018-02-14T05:51:13.171Z,-3.00
2018-02-14T05:52:16.439Z,-3.00
2018-02-14T05:53:20.438Z,-2.90
2018-02-14T05:54:24.440Z,-2.90
2018-02-14T05:55:28.476Z,-3.00
2018-02-14T05:56:31.735Z,-3.00
2018-02-14T05:57:35.738Z,-3.10
2018-02-14T05:58:38.967Z,-3.10
2018-02-14T05:59:42.185Z,-3.10
2018-02-14T06:00:46.197Z,-3.10
2018-02-14T06:01:50.186Z,-3.10
2018-02-14T06:02:54.174Z,-3.30
2018-02-14T06:03:57.401Z,-3.30
2018-02-14T06:05:00.669Z,-3.30
2018-02-14T06:06:03.900Z,-3.30
2018-02-14T06:07:07.148Z,-3.30
2018-02-14T06:08:10.379Z,-3.30
2018-02-14T06:09:13.611Z,-3.20
2018-02-14T06:10:16.842Z,-3.20
2018-02-14T06:11:20.101Z,-3.20
2018-02-14T06:12:23.343Z,-3.10
2018-02-14T06:13:27.328Z,-3.10
2018-02-14T06:14:31.357Z,-3.10
2018-02-14T06:15:34.602Z,-3.10
2018-02-14T06:16:37.862Z,-3.10
2018-02-14T06:17:41.072Z,-3.10
2018-02-14T06:18:44.364Z,-3.20
2018-02-14T06:19:47.601Z,-3.20
2018-02-14T06:20:50.823Z,-3.10
2018-02-14T06:21:54.854Z,-3.00
2018-02-14T06:22:58.863Z,-3.10
2018-02-14T06:24:02.123Z,-3.10
2018-02-14T06:25:06.145Z,-3.00
2018-02-14T06:26:09.426Z,-3.10
2018-02-14T06:27:12.661Z,-3.00
2018-02-14T06:28:21.276Z,-3.00
2018-02-14T06:29:24.526Z,-3.00
2018-02-14T06:30:27.829Z,-3.00
2018-02-14T06:31:31.117Z,-2.90
2018-02-14T06:32:34.452Z,-2.90
2018-02-14T06:33:37.699Z,-2.90
2018-02-14T06:34:40.953Z,-2.90
2018-02-14T06:35:44.332Z,-2.90
2018-02-14T06:36:47.572Z,-2.90
2018-02-14T06:37:51.567Z,-3.00
2018-02-14T06:38:55.574Z,-3.00
2018-02-14T06:39:58.867Z,-3.10
2018-02-14T06:41:02.886Z,-3.00
2018-02-14T06:42:06.163Z,-3.10
2018-02-14T06:43:09.389Z,-3.10
2018-02-14T06:44:12.610Z,-3.10
2018-02-14T06:45:16.629Z,-3.00
2018-02-14T06:46:19.900Z,-3.10
2018-02-14T06:47:23.886Z,-3.00
2018-02-14T06:48:27.958Z,-3.00
2018-02-14T06:49:31.167Z,-3.00
2018-02-14T06:50:35.168Z,-3.10
2018-02-14T06:51:39.166Z,-3.10
2018-02-14T06:52:42.386Z,-3.10
2018-02-14T06:53:45.619Z,-3.10
2018-02-14T06:54:48.841Z,-3.10
2018-02-14T06:55:52.122Z,-3.00
2018-02-14T06:56:55.441Z,-3.00
2018-02-14T06:57:58.681Z,-3.00
2018-02-14T06:59:01.899Z,-3.00
2018-02-14T07:00:05.121Z,-2.90
2018-02-14T07:01:08.522Z,-3.00
2018-02-14T07:02:12.513Z,-3.00
2018-02-14T07:03:15.747Z,-3.00
2018-02-14T07:04:18.990Z,-3.00
2018-02-14T07:05:22.201Z,-3.00
2018-02-14T07:06:25.451Z,-3.00
2018-02-14T07:07:28.680Z,-3.00
2018-02-14T07:08:31.967Z,-3.00
2018-02-14T07:09:35.963Z,-3.00
2018-02-14T07:10:39.189Z,-3.00
2018-02-14T07:11:42.408Z,-3.00
2018-02-14T07:12:45.633Z,-3.00
2018-02-14T07:13:49.641Z,-3.00
2018-02-14T07:14:53.629Z,-3.00
2018-02-14T07:15:56.856Z,-3.00
2018-02-14T07:17:00.084Z,-3.00
2018-02-14T07:18:03.318Z,-3.00
2018-02-14T07:19:06.544Z,-2.90
2018-02-14T07:20:09.774Z,-3.00
2018-02-14T07:21:13.040Z,-3.00
2018-02-14T07:22:17.009Z,-2.90
2018-02-14T07:23:26.661Z,-2.90
2018-02-14T07:24:29.911Z,-2.90
2018-02-14T07:25:33.152Z,-2.90
2018-02-14T07:26:36.377Z,-2.90
2018-02-14T07:27:40.373Z,-2.80
2018-02-14T07:28:43.600Z,-2.80
2018-02-14T07:29:46.827Z,-2.70
2018-02-14T07:30:50.059Z,-2.80
2018-02-14T07:31:53.285Z,-2.70
2018-02-14T07:32:56.516Z,-2.70
2018-02-14T07:33:59.805Z,-2.70
2018-02-14T07:35:03.091Z,-2.70
2018-02-14T07:36:06.365Z,-2.70
2018-02-14T07:37:09.634Z,-2.80
2018-02-14T07:38:13.629Z,-2.80
2018-02-14T07:39:17.631Z,-2.80
2018-02-14T07:40:20.861Z,-2.80
2018-02-14T07:41:24.072Z,-2.80
2018-02-14T07:42:27.314Z,-2.80
2018-02-14T07:43:30.540Z,-2.70
2018-02-14T07:44:33.862Z,-2.70
2018-02-14T07:45:37.860Z,-2.60
2018-02-14T07:46:41.864Z,-2.70
2018-02-14T07:47:45.125Z,-2.60
2018-02-14T07:48:48.360Z,-2.60
2018-02-14T07:49:51.586Z,-2.60
2018-02-14T07:50:54.809Z,-2.60
2018-02-14T07:51:58.060Z,-2.50
2018-02-14T07:53:01.298Z,-2.50
2018-02-14T07:54:04.541Z,-2.50
2018-02-14T07:55:08.532Z,-2.40
2018-02-14T07:56:12.517Z,-2.40
2018-02-14T07:57:15.724Z,-2.40
2018-02-14T07:58:18.966Z,-2.30
2018-02-14T07:59:22.197Z,-2.30
2018-02-14T08:00:25.424Z,-2.20
2018-02-14T08:01:28.646Z,-2.20
2018-02-14T08:02:32.640Z,-2.10
2018-02-14T08:03:36.621Z,-2.20
2018-02-14T08:04:41.349Z,-2.20
2018-02-14T08:05:44.572Z,-2.20
2018-02-14T08:06:47.853Z,-2.10
2018-02-14T08:07:51.077Z,-2.10
2018-02-14T08:08:54.306Z,-2.00
2018-02-14T08:09:58.332Z,-1.90
2018-02-14T08:11:01.571Z,-2.00
2018-02-14T08:12:04.789Z,-2.00
2018-02-14T08:13:08.018Z,-1.90
2018-02-14T08:14:11.272Z,-1.90
2018-02-14T08:15:14.501Z,-1.90
2018-02-14T08:16:17.748Z,-1.90
2018-02-14T08:17:20.972Z,-1.90
2018-02-14T08:18:24.193Z,-1.90
2018-02-14T08:19:27.422Z,-1.90
2018-02-14T08:20:30.706Z,-1.90
2018-02-14T08:21:33.947Z,-1.90
2018-02-14T08:22:37.199Z,-1.90
2018-02-14T08:23:41.177Z,-1.80
2018-02-14T08:24:44.398Z,-1.90
2018-02-14T08:25:47.625Z,-1.80
2018-02-14T08:26:50.844Z,-1.70
2018-02-14T08:27:54.935Z,-1.70
2018-02-14T08:28:58.158Z,-1.80
2018-02-14T08:30:01.388Z,-1.70
2018-02-14T08:31:04.637Z,-1.70
2018-02-14T08:32:07.873Z,-1.70
2018-02-14T08:33:11.881Z,-1.90
2018-02-14T08:34:15.872Z,-1.80
2018-02-14T08:35:19.127Z,-1.80
2018-02-14T08:36:22.356Z,-1.90
2018-02-14T08:37:25.578Z,-1.90
2018-02-14T08:38:28.801Z,-1.80
2018-02-14T08:39:32.797Z,-1.70
2018-02-14T08:40:36.813Z,-1.70
2018-02-14T08:41:40.808Z,-1.60
2018-02-14T08:42:44.795Z,-1.60
2018-02-14T08:43:48.025Z,-1.60
2018-02-14T08:44:51.277Z,-1.50
2018-02-14T08:45:54.559Z,-1.60
2018-02-14T08:46:57.759Z,-1.60
2018-02-14T08:48:01.113Z,-1.60
2018-02-14T08:49:04.324Z,-1.50
2018-02-14T08:50:07.550Z,-1.40
2018-02-14T08:51:10.825Z,-1.40
2018-02-14T08:52:14.044Z,-1.40
2018-02-14T08:53:17.353Z,-1.40
2018-02-14T08:54:21.357Z,-1.40
2018-02-14T08:55:24.581Z,-1.40
2018-02-14T08:56:27.817Z,-1.30
2018-02-14T08:57:31.812Z,-1.30
2018-02-14T08:58:35.800Z,-1.30
2018-02-14T08:59:39.789Z,-1.20
2018-02-14T09:00:43.014Z,-1.20
2018-02-14T09:01:46.226Z,-1.20
2018-02-14T09:02:49.451Z,-1.20
2018-02-14T09:03:52.679Z,-1.20
2018-02-14T09:04:55.912Z,-1.00
2018-02-14T09:05:59.126Z,-1.00
2018-02-14T09:07:02.405Z,-0.90
2018-02-14T09:08:05.702Z,-0.80
2018-02-14T09:09:08.922Z,-0.90
2018-02-14T09:10:12.149Z,-0.90
2018-02-14T09:11:16.209Z,-0.80
2018-02-14T09:12:19.400Z,-0.80
2018-02-14T09:13:22.616Z,-0.80
2018-02-14T09:14:26.615Z,-0.80
2018-02-14T09:15:30.604Z,-0.70
2018-02-14T09:16:34.604Z,-0.70
2018-02-14T09:17:37.794Z,-0.70
2018-02-14T09:18:41.809Z,-0.70
2018-02-14T09:19:45.041Z,-0.70
2018-02-14T09:20:48.269Z,-0.70
2018-02-14T09:21:52.271Z,-0.70
2018-02-14T09:22:56.248Z,-0.70
2018-02-14T09:23:59.562Z,-0.70
2018-02-14T09:25:02.810Z,-0.60
2018-02-14T09:26:06.018Z,-0.60
2018-02-14T09:27:09.252Z,-0.60
2018-02-14T09:28:12.466Z,-0.60
2018-02-14T09:29:15.686Z,-0.50
2018-02-14T09:30:18.909Z,-0.50
2018-02-14T09:31:22.163Z,-0.40
2018-02-14T09:32:25.416Z,-0.40
2018-02-14T09:33:29.403Z,-0.40
2018-02-14T09:34:32.633Z,-0.40
2018-02-14T09:35:35.868Z,-0.30
2018-02-14T09:36:39.844Z,-0.30
2018-02-14T09:37:43.065Z,-0.30
2018-02-14T09:38:46.281Z,-0.30
2018-02-14T09:39:49.502Z,-0.30
2018-02-14T09:40:54.345Z,-0.30
2018-02-14T09:41:58.349Z,-0.20
2018-02-14T09:43:01.577Z,-0.30
2018-02-14T09:44:04.817Z,-0.20
2018-02-14T09:45:08.032Z,-0.30
2018-02-14T09:46:11.245Z,-0.20
2018-02-14T09:47:14.478Z,-0.10
2018-02-14T09:48:17.697Z,-0.10
2018-02-14T09:49:20.911Z,0.00
2018-02-14T09:50:24.887Z,0.10
2018-02-14T09:51:29.624Z,0.00
2018-02-14T09:52:33.612Z,0.10
2018-02-14T09:53:36.830Z,0.00
2018-02-14T09:54:40.807Z,0.00
2018-02-14T09:55:44.016Z,0.00
2018-02-14T09:56:47.995Z,0.00
2018-02-14T09:57:51.972Z,0.10
2018-02-14T09:58:55.180Z,0.10
2018-02-14T09:59:59.170Z,0.00
2018-02-14T10:01:02.377Z,0.00
2018-02-14T10:02:06.348Z,0.20
2018-02-14T10:03:09.573Z,0.10
2018-02-14T10:04:13.529Z,0.20
2018-02-14T10:05:16.745Z,0.20
2018-02-14T10:06:19.954Z,0.20
2018-02-14T10:07:23.190Z,0.30
2018-02-14T10:08:26.402Z,0.40
2018-02-14T10:09:29.632Z,0.40
2018-02-14T10:10:32.845Z,0.30
2018-02-14T10:11:36.838Z,0.40
2018-02-14T10:12:40.049Z,0.40
2018-02-14T10:13:43.318Z,0.40
2018-02-14T10:14:47.300Z,0.50
2018-02-14T10:15:52.047Z,0.50
2018-02-14T10:16:55.276Z,0.50
2018-02-14T10:17:58.498Z,0.50
2018-02-14T10:19:02.488Z,0.60
2018-02-14T10:20:05.696Z,0.60
2018-02-14T10:21:08.905Z,0.60
2018-02-14T10:22:12.122Z,0.70
2018-02-14T10:23:15.331Z,0.80
2018-02-14T10:24:19.315Z,0.70
2018-02-14T10:25:22.537Z,0.70
2018-02-14T10:26:25.740Z,0.70
2018-02-14T10:27:28.961Z,0.80
2018-02-14T10:28:32.189Z,0.80
2018-02-14T10:29:35.396Z,0.80
2018-02-14T10:30:38.618Z,0.80
2018-02-14T10:31:42.609Z,0.80
2018-02-14T10:32:45.816Z,0.80
2018-02-14T10:33:49.046Z,0.90
2018-02-14T10:34:52.293Z,0.90
2018-02-14T10:35:55.509Z,1.00
2018-02-14T10:36:58.738Z,1.10
2018-02-14T10:38:02.719Z,1.20
2018-02-14T10:39:05.925Z,1.20
2018-02-14T10:40:09.149Z,1.30
2018-02-14T10:41:12.389Z,1.40
2018-02-14T10:42:16.378Z,1.40
2018-02-14T10:43:19.581Z,1.40
2018-02-14T10:44:22.804Z,1.30
2018-02-14T10:45:26.044Z,1.40
2018-02-14T10:46:29.259Z,1.40
2018-02-14T10:47:32.525Z,1.40
2018-02-14T10:48:35.729Z,1.60
2018-02-14T10:49:39.294Z,1.60
2018-02-14T10:50:42.521Z,1.60
2018-02-14T10:51:45.730Z,1.60
2018-02-14T10:52:49.732Z,1.50
2018-02-14T10:53:53.720Z,1.40
2018-02-14T10:54:56.918Z,1.40
2018-02-14T10:56:00.902Z,1.30
2018-02-14T10:57:04.144Z,1.30
2018-02-14T10:58:07.446Z,1.40
2018-02-14T10:59:10.629Z,1.40
2018-02-14T11:00:19.477Z,1.40
2018-02-14T11:01:29.190Z,1.50
2018-02-14T11:02:38.090Z,1.50
2018-02-14T11:03:44.165Z,1.70
2018-02-14T11:04:53.260Z,1.80
2018-02-14T11:06:02.204Z,1.80
2018-02-14T11:07:22.983Z,2.00
2018-02-14T11:08:26.293Z,2.00
2018-02-14T11:09:30.274Z,2.10
2018-02-14T11:10:33.483Z,2.00
2018-02-14T11:11:36.700Z,2.00
2018-02-14T11:12:39.910Z,1.80
2018-02-14T11:13:43.123Z,1.70
2018-02-14T11:14:47.131Z,1.70
2018-02-14T11:15:51.096Z,1.70
2018-02-14T11:16:54.418Z,1.70
2018-02-14T11:17:58.388Z,1.90
2018-02-14T11:19:01.622Z,1.90
2018-02-14T11:20:04.853Z,1.90
2018-02-14T11:21:08.114Z,1.90
2018-02-14T11:22:11.321Z,2.00
2018-02-14T11:23:14.535Z,2.00
2018-02-14T11:24:17.748Z,2.00
2018-02-14T11:25:20.971Z,2.00
2018-02-14T11:26:24.187Z,2.10
2018-02-14T11:27:27.402Z,2.10
2018-02-14T11:28:30.611Z,2.10
2018-02-14T11:29:33.927Z,2.20
2018-02-14T11:30:37.916Z,2.10
2018-02-14T11:31:41.904Z,2.20
2018-02-14T11:32:45.112Z,2.20
2018-02-14T11:33:48.325Z,2.20
2018-02-14T11:34:51.546Z,2.20
2018-02-14T11:35:54.810Z,2.20
2018-02-14T11:36:58.008Z,2.00
2018-02-14T11:38:01.230Z,2.10
2018-02-14T11:39:05.190Z,2.00
2018-02-14T11:40:08.411Z,2.00
2018-02-14T11:41:11.629Z,2.10
2018-02-14T11:42:14.837Z,2.20
2018-02-14T11:43:18.052Z,2.10
2018-02-14T11:44:21.264Z,2.10
2018-02-14T11:45:24.497Z,2.10
2018-02-14T11:46:27.721Z,2.10
2018-02-14T11:47:30.931Z,2.00
2018-02-14T11:48:34.165Z,2.10
2018-02-14T11:49:37.385Z,2.20
2018-02-14T11:50:40.590Z,2.20
2018-02-14T11:51:43.809Z,2.40
2018-02-14T11:52:47.777Z,2.50
2018-02-14T11:53:50.988Z,2.50
2018-02-14T11:54:54.958Z,2.40
2018-02-14T11:55:58.218Z,2.40
2018-02-14T11:57:01.437Z,2.40
2018-02-14T11:58:04.680Z,2.40
2018-02-14T11:59:07.890Z,2.40
2018-02-14T12:00:11.118Z,2.50
2018-02-14T12:01:14.325Z,2.50
2018-02-14T12:02:17.579Z,2.50
2018-02-14T12:03:21.554Z,2.40
2018-02-14T12:04:25.551Z,2.30
2018-02-14T12:05:28.745Z,2.30
2018-02-14T12:06:32.729Z,2.40
2018-02-14T12:07:35.948Z,2.40
2018-02-14T12:08:39.157Z,2.40
2018-02-14T12:09:42.395Z,2.30
2018-02-14T12:10:46.388Z,2.30
2018-02-14T12:11:49.583Z,2.30
2018-02-14T12:12:53.569Z,2.20
2018-02-14T12:13:56.810Z,2.20
2018-02-14T12:15:00.065Z,2.30
2018-02-14T12:16:03.279Z,2.20
2018-02-14T12:17:06.489Z,2.30
2018-02-14T12:18:10.464Z,2.30
2018-02-14T12:19:13.672Z,2.30
2018-02-14T12:20:17.654Z,2.40
2018-02-14T12:21:20.873Z,2.40
2018-02-14T12:22:24.069Z,2.50
2018-02-14T12:23:27.294Z,2.50
2018-02-14T12:24:30.513Z,2.50
2018-02-14T12:25:33.725Z,2.50
2018-02-14T12:26:36.960Z,2.60
2018-02-14T12:27:40.933Z,2.70
2018-02-14T12:28:44.147Z,2.70
2018-02-14T12:29:48.210Z,2.80
2018-02-14T12:30:51.380Z,2.80
2018-02-14T12:31:54.617Z,2.80
2018-02-14T12:32:58.589Z,2.70
2018-02-14T12:34:01.800Z,2.70
2018-02-14T12:35:05.776Z,2.80
2018-02-14T12:36:08.987Z,2.70
2018-02-14T12:37:12.205Z,2.60
2018-02-14T12:38:15.408Z,2.60
2018-02-14T12:39:18.612Z,2.50
2018-02-14T12:40:21.872Z,2.50
2018-02-14T12:41:25.078Z,2.40
2018-02-14T12:42:29.100Z,2.50
2018-02-14T12:43:32.356Z,2.40
2018-02-14T12:44:35.570Z,2.50
2018-02-14T12:45:38.784Z,2.60
2018-02-14T12:46:41.985Z,2.70
2018-02-14T12:47:45.199Z,2.70
2018-02-14T12:48:49.169Z,2.80
2018-02-14T12:49:52.405Z,2.80
2018-02-14T12:50:55.612Z,2.90
2018-02-14T12:51:58.850Z,2.90
2018-02-14T12:53:03.105Z,3.00
2018-02-14T12:54:06.344Z,3.00
2018-02-14T12:55:10.332Z,3.00
2018-02-14T12:56:13.537Z,3.00
2018-02-14T12:57:16.770Z,3.00
2018-02-14T12:58:19.994Z,3.00
2018-02-14T12:59:23.209Z,3.10
2018-02-14T13:00:26.423Z,3.10
2018-02-14T13:01:29.765Z,3.10
2018-02-14T13:02:32.990Z,3.10
2018-02-14T13:03:36.219Z,3.20
2018-02-14T13:04:39.441Z,3.30
2018-02-14T13:05:42.661Z,3.50
2018-02-14T13:06:46.652Z,3.60
2018-02-14T13:07:50.641Z,3.50
2018-02-14T13:08:53.952Z,3.50
2018-02-14T13:09:57.188Z,3.50
2018-02-14T13:11:00.417Z,3.50
2018-02-14T13:12:04.444Z,3.70
2018-02-14T13:13:07.664Z,3.60
2018-02-14T13:14:10.892Z,3.80
2018-02-14T13:15:14.120Z,3.80
2018-02-14T13:16:17.333Z,3.90
2018-02-14T13:17:21.421Z,3.90
2018-02-14T13:18:24.643Z,3.90
2018-02-14T13:19:27.857Z,4.00
2018-02-14T13:20:31.077Z,4.00
2018-02-14T13:21:34.298Z,4.10
2018-02-14T13:22:37.520Z,4.10
2018-02-14T13:23:40.836Z,4.10
2018-02-14T13:24:44.829Z,4.30
2018-02-14T13:25:48.807Z,4.40
2018-02-14T13:26:52.042Z,4.40
2018-02-14T13:27:55.273Z,4.50
2018-02-14T13:28:58.605Z,4.60
2018-02-14T13:30:01.867Z,4.70
2018-02-14T13:31:05.896Z,4.90
2018-02-14T13:32:09.155Z,4.90
2018-02-14T13:33:13.151Z,5.00
2018-02-14T13:34:17.138Z,5.10
2018-02-14T13:35:21.144Z,5.00
2018-02-14T13:36:25.122Z,5.10
2018-02-14T13:37:28.345Z,5.00
2018-02-14T13:38:31.823Z,5.20
2018-02-14T13:39:35.799Z,5.20
2018-02-14T13:40:39.797Z,5.30
2018-02-14T13:41:43.124Z,5.30
2018-02-14T13:42:46.352Z,5.30
2018-02-14T13:43:49.574Z,5.40
2018-02-14T13:44:53.562Z,5.70
2018-02-14T13:45:56.777Z,5.70
2018-02-14T13:47:00.006Z,5.80